Impacts TAF Board INFO
FOR SITUATIONAL AWARENESS. NOT TO BE USED FOR FLIGHT PLANNING PURPOSES.
IDs:

KLGA - New York/La Guardia, NY, US

Issued at 1923 UTC 21 Jun 2018
Updated at 1951 UTC 21 Jun 2018
Potential Impact None Slight Moderate High
Time1851Z 21/20Z 21/21Z 21/22Z 21/23Z 22/00Z 22/01Z 22/02Z 22/03Z 22/04Z 22/05Z 22/06Z 22/07Z 22/08Z>>
Type OBS PRVL PRVL PRVL PRVL PRVL PRVL PRVL PRVL PRVL PRVL PRVL PRVL PRVL
VIS 10 >6 >6 >6 >6 >6 >6 >6 >6 >6 >6 >6 >6 >6
CIG -- -- -- -- -- -- -- -- -- -- -- -- -- --
Cover SCT SCT SCT SCT FEW FEW FEW FEW FEW FEW FEW SCT SCT SCT
FltCat VFR VFR VFR VFR VFR VFR VFR VFR VFR VFR VFR VFR VFR VFR
WX -- -- -- -- -- -- -- -- -- -- -- -- -- --
WDir VRB 70 70 70 130 130 130 90 90 90 90 60 60 60
WSpd 0 6 6 6 6 6 6 4 4 4 4 7 7 7
WGst -- -- -- -- -- -- -- -- -- -- -- -- -- --

Raw TAF
KLGA 211923Z 2119/2224 07006KT P6SM SCT060
  FM212300 13006KT P6SM FEW250
  FM220200 09004KT P6SM FEW250
  FM220600 06007KT P6SM SCT050
  FM221000 06009KT P6SM SCT020 SCT050
  FM221500 07012KT P6SM SCT030 BKN150
  FM221800 11014KT P6SM SCT030 BKN100


Raw METAR
KLGA 211851Z 00000KT 10SM FEW043 FEW100 SCT170 SCT250 28/14 A2975 RMK AO2 SLP074 T02780144
KLGA 211751Z 08007KT 10SM FEW035 SCT110 BKN250 28/16 A2976 RMK AO2 SLP078 60000 T02780161 10278 20194 58006
KLGA 211651Z 05010KT 10SM FEW025 SCT050 BKN180 26/17 A2977 RMK AO2 SLP081 T02610167

METAR Board
Radar Display
Forecast Discussion

FOR SITUATIONAL AWARENESS. NOT TO BE USED FOR FLIGHT PLANNING PURPOSES.